Time;durP1;ratioP1;P1;durP2;ratioP2;P2;SDS_P1;SDS_P2;PMS_P1;PMS_P2;Temp;Humidity;BMP_temperature;BMP_pressure;BME280_temperature;BME280_humidity;BME280_pressure;Samples;Min_cycle;Max_cycle;Signal;HPM_P1;HPM_P2
2024/03/13 00:01:00;;;;;;;0.40;0.40;;;;;;;12.47;77.77;101313.34;5092614;28;20032;-77
2024/03/13 00:03:28;;;;;;;0.38;0.38;;;;;;;12.51;77.39;101311.50;5092889;28;20092;-77
2024/03/13 00:05:54;;;;;;;0.10;0.10;;;;;;;12.54;77.74;101317.63;5089329;28;20028;-77
2024/03/13 00:08:22;;;;;;;0.30;0.30;;;;;;;12.58;77.90;101321.09;5101312;28;20027;-77
2024/03/13 00:10:50;;;;;;;2.58;2.47;;;;;;;12.60;77.06;101330.78;5107202;28;20024;-76
2024/03/13 00:13:17;;;;;;;0.20;0.20;;;;;;;12.60;77.77;101327.28;5088927;28;20043;-76
2024/03/13 00:15:44;;;;;;;0.20;0.20;;;;;;;12.61;77.94;101329.00;5108216;28;20031;-78
2024/03/13 00:18:10;;;;;;;0.20;0.20;;;;;;;12.65;77.56;101329.81;5104469;28;20028;-78
2024/03/13 00:20:37;;;;;;;0.20;0.20;;;;;;;12.66;77.80;101329.81;5105320;28;20502;-78
2024/03/13 00:23:03;;;;;;;0.10;0.10;;;;;;;12.66;77.73;101334.22;5095978;28;20056;-77
2024/03/13 00:25:29;;;;;;;0.10;0.10;;;;;;;12.64;78.62;101333.41;5099723;28;20028;-78
2024/03/13 00:27:56;;;;;;;2.08;0.88;;;;;;;12.70;77.79;101335.94;5094999;28;20060;-78
2024/03/13 00:30:22;;;;;;;0.28;0.28;;;;;;;12.74;77.86;101332.31;5101939;28;20036;-78
2024/03/13 00:32:53;;;;;;;1.52;0.85;;;;;;;12.77;77.78;101332.22;5104625;28;20549;-78
2024/03/13 00:35:21;;;;;;;0.20;0.20;;;;;;;12.78;78.00;101342.84;5086668;28;20036;-79
2024/03/13 00:37:49;;;;;;;0.10;0.10;;;;;;;12.83;78.34;101342.72;5095030;28;20370;-78
2024/03/13 00:40:16;;;;;;;0.15;0.15;;;;;;;12.84;77.99;101339.16;5094355;28;20028;-77
2024/03/13 00:42:43;;;;;;;0.30;0.30;;;;;;;12.87;78.42;101338.22;5101655;28;20510;-79
2024/03/13 00:45:11;;;;;;;0.10;0.10;;;;;;;12.89;78.04;101337.28;5102121;28;20517;-79
2024/03/13 00:47:38;;;;;;;0.45;0.45;;;;;;;12.84;78.60;101339.16;5101177;28;20114;-79
2024/03/13 00:50:07;;;;;;;0.10;0.10;;;;;;;12.91;78.29;101340.78;5095002;28;20657;-78
2024/03/13 00:52:35;;;;;;;0.15;0.15;;;;;;;12.93;78.55;101341.63;5091090;28;20032;-79
2024/03/13 00:55:02;;;;;;;0.10;0.10;;;;;;;12.99;78.27;101337.09;5105535;28;20055;-78
2024/03/13 00:57:29;;;;;;;0.20;0.20;;;;;;;12.98;78.07;101336.19;5102815;28;20479;-77
2024/03/13 00:59:56;;;;;;;0.60;0.60;;;;;;;12.97;78.94;101337.09;5100071;28;20028;-78
2024/03/13 01:02:22;;;;;;;0.10;0.10;;;;;;;12.98;78.71;101335.34;5097814;28;20036;-79
2024/03/13 01:04:49;;;;;;;0.10;0.10;;;;;;;13.01;78.38;101329.94;5091652;28;20040;-79
2024/03/13 01:07:15;;;;;;;0.55;0.55;;;;;;;13.03;78.45;101341.41;5090146;28;20039;-78
2024/03/13 01:09:41;;;;;;;0.20;0.20;;;;;;;13.04;78.58;101340.53;5100259;28;20050;-78
2024/03/13 01:12:09;;;;;;;0.20;0.20;;;;;;;13.04;78.44;101343.19;5100458;28;20039;-79
2024/03/13 01:14:35;;;;;;;1.02;0.75;;;;;;;13.07;78.64;101340.44;5097962;28;20648;-78
2024/03/13 01:17:02;;;;;;;0.10;0.10;;;;;;;13.10;78.41;101335.94;5095563;28;20032;-79
2024/03/13 01:19:34;;;;;;;0.63;0.63;;;;;;;13.04;78.99;101335.19;5088583;28;20083;-79
2024/03/13 01:22:05;;;;;;;0.20;0.20;;;;;;;13.07;78.31;101336.00;5093224;28;20032;-78
2024/03/13 01:24:32;;;;;;;0.10;0.10;;;;;;;13.07;78.98;101337.78;5100008;28;20035;-79
2024/03/13 01:26:59;;;;;;;0.10;0.10;;;;;;;13.07;79.00;101340.44;5106362;28;20028;-78
2024/03/13 01:29:25;;;;;;;0.10;0.10;;;;;;;13.10;78.58;101330.59;5102477;28;20024;-79
2024/03/13 01:31:51;;;;;;;0.13;0.13;;;;;;;13.13;78.17;101334.13;5103705;28;20035;-78
2024/03/13 01:34:20;;;;;;;2.03;1.70;;;;;;;13.09;78.66;101335.97;5098003;28;20035;-79
2024/03/13 01:39:32;;;;;;;0.90;0.90;;;;;;;13.13;78.74;101339.44;5096936;28;20047;-78
2024/03/13 01:56:26;;;;;;;0.10;0.10;;;;;;;13.06;78.63;101346.66;5101424;28;20090;-77
2024/03/13 01:59:20;;;;;;;0.85;0.85;;;;;;;13.02;79.28;101342.31;5102245;28;20021;-78
2024/03/13 02:04:26;;;;;;;1.50;1.40;;;;;;;13.00;79.71;101354.81;5094291;28;20044;-77
2024/03/13 02:06:53;;;;;;;0.10;0.10;;;;;;;13.01;79.32;101346.78;5090084;28;20024;-76
2024/03/13 02:09:22;;;;;;;0.25;0.25;;;;;;;13.00;79.38;101344.16;5104071;28;20028;-76
2024/03/13 02:11:49;;;;;;;0.65;0.65;;;;;;;13.00;78.98;101344.16;5104058;28;20091;-76
2024/03/13 02:14:16;;;;;;;0.10;0.10;;;;;;;12.98;79.38;101344.19;5103646;28;20110;-75
2024/03/13 02:16:42;;;;;;;1.13;1.10;;;;;;;13.04;79.32;101348.50;5102998;28;20040;-77
2024/03/13 02:19:10;;;;;;;0.47;0.47;;;;;;;13.01;79.66;101344.13;5102481;28;20020;-76
2024/03/13 02:21:36;;;;;;;2.10;1.00;;;;;;;13.00;78.96;101341.50;5103109;28;20043;-77
2024/03/13 02:24:03;;;;;;;0.47;0.47;;;;;;;13.02;79.36;101348.53;5102708;28;20057;-76
2024/03/13 02:26:29;;;;;;;0.30;0.30;;;;;;;12.95;79.07;101347.78;5101809;28;20035;-76
2024/03/13 02:28:56;;;;;;;0.10;0.10;;;;;;;12.97;79.23;101349.53;5094879;28;20031;-77
2024/03/13 02:31:22;;;;;;;0.10;0.10;;;;;;;12.94;79.59;101340.72;5093324;28;20039;-78
2024/03/13 02:33:48;;;;;;;0.63;0.43;;;;;;;12.90;79.78;101349.66;5094083;28;20083;-78
2024/03/13 02:36:14;;;;;;;0.65;0.65;;;;;;;12.86;79.85;101345.34;5091163;28;20159;-77
2024/03/13 02:38:41;;;;;;;0.10;0.10;;;;;;;12.87;79.55;101348.84;5095651;28;20024;-77
2024/03/13 02:41:07;;;;;;;0.30;0.30;;;;;;;12.93;79.22;101349.63;5095051;28;20103;-78
2024/03/13 02:43:36;;;;;;;1.00;1.00;;;;;;;12.91;79.13;101351.44;5094634;28;20029;-77
2024/03/13 02:46:03;;;;;;;0.82;0.82;;;;;;;12.89;79.39;101352.38;5091484;28;20042;-76
2024/03/13 02:48:29;;;;;;;0.10;0.10;;;;;;;12.85;79.76;101346.25;5090413;28;20035;-76
2024/03/13 02:50:55;;;;;;;0.17;0.17;;;;;;;12.90;79.02;101344.34;5094623;28;20046;-76
2024/03/13 02:53:21;;;;;;;0.50;0.50;;;;;;;12.86;79.38;101345.34;5094200;28;20453;-77
2024/03/13 02:55:48;;;;;;;0.15;0.15;;;;;;;12.83;79.47;101347.19;5098100;28;20043;-77
2024/03/13 02:58:14;;;;;;;0.30;0.30;;;;;;;12.84;79.80;101349.81;5100689;28;20032;-79
2024/03/13 03:00:43;;;;;;;0.30;0.30;;;;;;;12.84;79.65;101355.13;5103230;28;20084;-78
2024/03/13 03:03:12;;;;;;;0.20;0.20;;;;;;;12.85;79.21;101356.88;5108848;28;20093;-78
2024/03/13 03:05:38;;;;;;;0.10;0.10;;;;;;;12.80;79.48;101358.75;5100902;28;20031;-78
2024/03/13 03:08:04;;;;;;;0.82;0.82;;;;;;;12.79;80.09;101359.66;5101049;28;20039;-82
2024/03/13 03:10:30;;;;;;;0.20;0.20;;;;;;;12.85;79.61;101361.34;5107454;28;20032;-76
2024/03/13 03:12:58;;;;;;;1.95;1.85;;;;;;;12.78;80.13;101365.88;5104514;28;20418;-76
2024/03/13 03:15:28;;;;;;;4.38;2.65;;;;;;;12.80;79.88;101358.75;5107427;28;20151;-78
2024/03/13 03:17:54;;;;;;;0.10;0.10;;;;;;;12.77;79.69;101365.03;5096248;28;20498;-78
2024/03/13 03:20:20;;;;;;;0.32;0.22;;;;;;;12.81;79.33;101360.50;5107569;28;20038;-77
2024/03/13 03:22:47;;;;;;;4.57;1.60;;;;;;;12.87;79.51;101365.72;5103225;28;20158;-78
2024/03/13 03:25:13;;;;;;;0.50;0.50;;;;;;;12.85;79.53;101362.19;5096304;28;20096;-78
2024/03/13 03:27:39;;;;;;;0.10;0.10;;;;;;;12.86;79.30;101357.75;5102041;28;20116;-78
2024/03/13 03:30:06;;;;;;;0.30;0.30;;;;;;;12.73;80.59;101365.09;5099076;28;20436;-78
2024/03/13 03:32:32;;;;;;;0.10;0.10;;;;;;;12.77;80.27;101364.13;5100041;28;20030;-78
2024/03/13 03:34:58;;;;;;;0.10;0.10;;;;;;;12.84;79.96;101360.44;5095398;28;20079;-79
2024/03/13 03:37:25;;;;;;;2.67;1.50;;;;;;;12.85;80.05;101372.84;5089505;28;20024;-79
2024/03/13 03:39:51;;;;;;;5.18;0.73;;;;;;;12.83;79.90;101369.31;5093388;28;20020;-78
2024/03/13 03:42:17;;;;;;;0.57;0.52;;;;;;;12.85;79.90;101375.50;5099542;28;20056;-78
2024/03/13 03:44:43;;;;;;;0.43;0.43;;;;;;;12.90;79.59;101370.09;5105078;28;20035;-78
2024/03/13 03:47:10;;;;;;;0.60;0.60;;;;;;;12.90;79.50;101376.25;5096677;28;20050;-78
2024/03/13 03:49:39;;;;;;;0.10;0.10;;;;;;;12.93;79.54;101370.00;5095609;28;20363;-78
2024/03/13 03:52:05;;;;;;;0.20;0.20;;;;;;;12.90;79.65;101370.94;5096792;28;20024;-78
2024/03/13 03:54:31;;;;;;;0.38;0.38;;;;;;;12.87;79.90;101371.03;5104300;28;20113;-78
2024/03/13 03:56:58;;;;;;;0.10;0.10;;;;;;;12.82;80.06;101375.53;5099144;28;20027;-78
2024/03/13 03:59:24;;;;;;;0.10;0.10;;;;;;;12.84;80.04;101375.53;5095456;28;20469;-77
2024/03/13 04:01:50;;;;;;;0.10;0.10;;;;;;;12.85;79.89;101375.50;5088918;28;20028;-76
2024/03/13 04:04:16;;;;;;;0.10;0.10;;;;;;;12.87;79.73;101381.66;5093409;28;20025;-78
2024/03/13 04:06:43;;;;;;;0.10;0.10;;;;;;;12.86;79.63;101374.59;5094122;28;20031;-77
2024/03/13 04:09:17;;;;;;;0.32;0.32;;;;;;;12.89;79.79;101379.81;5101968;28;20115;-78
2024/03/13 04:11:44;;;;;;;0.10;0.10;;;;;;;12.91;79.45;101378.03;5096750;28;20024;-77
2024/03/13 04:14:11;;;;;;;0.30;0.30;;;;;;;12.91;79.56;101383.34;5087319;28;20051;-76
2024/03/13 04:16:38;;;;;;;0.32;0.32;;;;;;;12.92;79.50;101378.88;5098042;28;20502;-78
2024/03/13 04:19:06;;;;;;;0.75;0.75;;;;;;;12.97;79.27;101386.78;5094431;28;20500;-77
2024/03/13 04:21:32;;;;;;;0.13;0.13;;;;;;;12.95;79.56;101381.50;5098847;28;20036;-78
2024/03/13 04:23:59;;;;;;;0.47;0.47;;;;;;;12.93;79.29;101384.19;5099870;28;20032;-78
2024/03/13 04:26:28;;;;;;;2.28;1.08;;;;;;;12.94;79.31;101387.72;5104490;28;20028;-78
2024/03/13 04:28:54;;;;;;;0.20;0.20;;;;;;;12.90;79.36;101386.91;5101414;28;20024;-77
2024/03/13 04:31:21;;;;;;;0.45;0.40;;;;;;;12.88;79.37;101379.88;5097435;28;20024;-78
2024/03/13 04:33:48;;;;;;;0.20;0.20;;;;;;;12.87;79.73;101388.75;5098258;28;20020;-79
2024/03/13 04:36:14;;;;;;;0.63;0.63;;;;;;;12.84;79.56;101387.03;5096473;28;20067;-76
2024/03/13 04:38:41;;;;;;;0.75;0.75;;;;;;;12.89;79.39;101389.59;5097283;28;20055;-76
2024/03/13 04:41:11;;;;;;;0.68;0.68;;;;;;;12.88;80.20;101393.16;5096679;28;20036;-77
2024/03/13 04:43:37;;;;;;;0.98;0.98;;;;;;;12.87;79.95;101380.78;5097347;28;20028;-77
2024/03/13 04:46:03;;;;;;;0.65;0.65;;;;;;;12.88;79.59;101388.72;5096436;28;20093;-78
2024/03/13 04:48:29;;;;;;;1.80;1.73;;;;;;;12.87;79.86;101384.31;5095046;28;20026;-76
2024/03/13 04:50:56;;;;;;;0.30;0.30;;;;;;;12.90;79.11;101389.56;5093872;28;20060;-78
2024/03/13 04:53:23;;;;;;;9.95;2.47;;;;;;;12.79;80.22;101394.22;5095905;28;20032;-78
2024/03/13 04:55:50;;;;;;;0.80;0.63;;;;;;;12.80;80.22;101396.00;5096220;28;20028;-77
2024/03/13 04:58:16;;;;;;;0.10;0.10;;;;;;;12.81;80.32;101397.75;5095486;28;20036;-78
2024/03/13 05:00:42;;;;;;;0.10;0.10;;;;;;;12.86;79.73;101390.53;5096919;28;20120;-78
2024/03/13 05:03:09;;;;;;;0.10;0.10;;;;;;;12.81;79.93;101387.09;5096507;28;20586;-77
2024/03/13 05:05:35;;;;;;;1.08;0.60;;;;;;;12.80;79.72;101396.00;5090085;28;20066;-78
2024/03/13 05:08:01;;;;;;;0.20;0.20;;;;;;;12.85;79.91;101399.44;5095900;28;20042;-75
2024/03/13 05:10:29;;;;;;;0.93;0.85;;;;;;;12.85;80.02;101399.44;5095696;28;20073;-76
2024/03/13 05:12:55;;;;;;;0.13;0.13;;;;;;;12.88;79.29;101394.03;5096213;28;20031;-75
2024/03/13 05:15:21;;;;;;;0.10;0.10;;;;;;;12.86;79.76;101393.19;5095615;28;20027;-76
2024/03/13 05:17:49;;;;;;;5.22;2.17;;;;;;;12.85;79.55;101399.44;5094594;28;20035;-76
2024/03/13 05:20:17;;;;;;;0.10;0.10;;;;;;;12.86;80.01;101393.19;5093474;28;20028;-76
2024/03/13 05:22:45;;;;;;;1.00;0.95;;;;;;;12.88;79.56;101399.34;5096157;28;20039;-76
2024/03/13 05:25:16;;;;;;;0.57;0.57;;;;;;;12.86;79.65;101402.94;5095708;28;20046;-77
2024/03/13 05:27:46;;;;;;;0.63;0.63;;;;;;;12.78;79.49;101401.34;5095293;28;20153;-78
2024/03/13 05:30:12;;;;;;;0.20;0.20;;;;;;;12.82;79.57;101404.78;5096058;28;20012;-77
2024/03/13 05:32:38;;;;;;;0.13;0.13;;;;;;;12.78;79.92;101406.66;5096871;28;20054;-78
2024/03/13 05:35:06;;;;;;;0.43;0.43;;;;;;;12.79;79.45;101404.88;5099417;28;20507;-78
2024/03/13 05:37:34;;;;;;;0.45;0.45;;;;;;;12.77;80.04;101404.00;5095339;28;20051;-78
2024/03/13 05:40:11;;;;;;;0.50;0.50;;;;;;;12.69;79.71;101409.50;5095733;28;20047;-78
2024/03/13 05:42:38;;;;;;;0.63;0.63;;;;;;;12.70;79.75;101411.25;5096056;28;20059;-78
2024/03/13 05:45:07;;;;;;;0.20;0.20;;;;;;;12.74;79.91;101417.38;5088458;28;20029;-79
2024/03/13 05:47:33;;;;;;;0.10;0.10;;;;;;;12.72;79.33;101416.53;5093350;28;20032;-78
2024/03/13 05:49:59;;;;;;;0.40;0.40;;;;;;;12.67;79.56;101413.09;5095358;28;20069;-79
2024/03/13 05:52:26;;;;;;;0.40;0.40;;;;;;;12.67;79.89;101421.06;5095924;28;20028;-78
2024/03/13 05:54:52;;;;;;;0.38;0.38;;;;;;;12.68;80.17;101421.03;5092704;28;20039;-77
2024/03/13 05:57:25;;;;;;;0.10;0.10;;;;;;;12.65;80.06;101422.88;5093503;28;20024;-78
2024/03/13 05:59:52;;;;;;;0.20;0.20;;;;;;;12.67;79.30;101427.25;5093389;28;20028;-78
2024/03/13 06:02:18;;;;;;;0.10;0.10;;;;;;;12.72;79.43;101432.47;5088356;28;20032;-77
2024/03/13 06:04:45;;;;;;;0.95;0.63;;;;;;;12.74;79.69;101430.69;5095470;28;20060;-77
2024/03/13 06:07:12;;;;;;;0.20;0.20;;;;;;;12.76;78.99;101443.03;5094775;28;20085;-78
2024/03/13 06:09:38;;;;;;;0.30;0.30;;;;;;;12.69;79.66;101445.84;5096097;28;20035;-77
2024/03/13 06:12:05;;;;;;;0.10;0.10;;;;;;;12.75;79.69;101437.75;5107485;28;20100;-77
2024/03/13 06:14:32;;;;;;;0.80;0.80;;;;;;;12.74;79.17;101443.97;5096999;28;20032;-78
2024/03/13 06:16:59;;;;;;;0.10;0.10;;;;;;;12.75;79.70;101446.59;5093159;28;20024;-78
2024/03/13 06:19:26;;;;;;;0.10;0.10;;;;;;;12.73;79.43;101448.41;5096768;28;20034;-79
2024/03/13 06:21:53;;;;;;;0.38;0.38;;;;;;;12.72;79.23;101443.13;5097951;28;20039;-79
2024/03/13 06:24:30;;;;;;;0.25;0.25;;;;;;;12.74;79.67;101449.28;5099174;28;20077;-78
2024/03/13 06:27:02;;;;;;;0.20;0.20;;;;;;;12.76;79.63;101442.13;5098869;28;20093;-77
2024/03/13 06:29:59;;;;;;;0.25;0.25;;;;;;;12.75;79.76;101445.72;5098012;28;20512;-78
2024/03/13 06:32:14;;;;;;;0.10;0.10;;;;;;;12.74;79.59;101446.63;5094075;28;20064;-78
2024/03/13 06:34:41;;;;;;;0.73;0.73;;;;;;;12.71;79.55;101455.53;5096679;28;20046;-75
2024/03/13 06:37:07;;;;;;;0.10;0.10;;;;;;;12.78;79.87;101450.97;5093241;28;20020;-77
2024/03/13 06:39:34;;;;;;;0.43;0.43;;;;;;;12.75;79.28;101464.34;5094582;28;20031;-77
2024/03/13 06:42:00;;;;;;;0.10;0.10;;;;;;;12.77;79.50;101451.88;5096646;28;20494;-77
2024/03/13 06:44:26;;;;;;;0.10;0.10;;;;;;;12.81;79.27;101455.34;5099796;28;20383;-77
2024/03/13 06:46:53;;;;;;;0.32;0.32;;;;;;;12.77;79.14;101449.22;5093134;28;20043;-76
2024/03/13 06:49:19;;;;;;;0.17;0.17;;;;;;;12.68;79.63;101442.28;5095024;28;20047;-75
2024/03/13 06:51:45;;;;;;;0.10;0.10;;;;;;;12.70;79.65;101445.81;5095884;28;20035;-75
2024/03/13 06:54:11;;;;;;;0.10;0.10;;;;;;;12.69;79.92;101445.84;5096166;28;20023;-76
2024/03/13 06:56:38;;;;;;;0.10;0.10;;;;;;;12.75;79.80;101445.72;5095169;28;20024;-77
2024/03/13 06:59:05;;;;;;;0.10;0.10;;;;;;;12.77;79.63;101439.47;5091910;28;20032;-77
2024/03/13 07:01:31;;;;;;;0.75;0.57;;;;;;;12.74;79.37;101443.97;5095079;28;20028;-77
2024/03/13 07:03:58;;;;;;;0.00;0.00;;;;;;;12.78;79.87;101456.28;5093278;28;20077;-78
2024/03/13 07:06:24;;;;;;;0.35;0.35;;;;;;;12.81;79.61;101453.59;5091834;28;20479;-77
2024/03/13 07:08:50;;;;;;;0.20;0.20;;;;;;;12.82;79.56;101443.81;5097255;28;20023;-76
2024/03/13 07:11:16;;;;;;;1.60;1.50;;;;;;;12.77;79.64;101450.09;5092538;28;20042;-78
2024/03/13 07:13:42;;;;;;;0.10;0.10;;;;;;;12.74;79.61;101443.97;5104121;28;20027;-77
2024/03/13 07:16:09;;;;;;;0.10;0.10;;;;;;;12.83;79.37;101457.06;5110603;28;20031;-78
2024/03/13 07:18:35;;;;;;;1.23;0.47;;;;;;;12.83;79.23;101459.72;5115531;28;20054;-76
2024/03/13 07:21:03;;;;;;;0.13;0.13;;;;;;;12.79;79.61;101469.53;5109979;28;20091;-79
2024/03/13 07:23:29;;;;;;;1.10;1.10;;;;;;;12.83;79.33;101465.06;5110485;28;20084;-78
2024/03/13 07:25:56;;;;;;;0.52;0.52;;;;;;;12.82;79.30;101473.06;5105775;28;20035;-79
2024/03/13 07:28:22;;;;;;;0.10;0.10;;;;;;;12.86;79.58;101475.66;5104370;28;20020;-76
2024/03/13 07:30:48;;;;;;;0.10;0.10;;;;;;;12.79;79.63;101471.34;5097706;28;20085;-77
2024/03/13 07:33:15;;;;;;;0.10;0.10;;;;;;;12.81;79.87;101466.88;5104505;28;20032;-79
2024/03/13 07:35:42;;;;;;;0.10;0.10;;;;;;;12.78;79.42;101466.94;5112314;28;20023;-77
2024/03/13 07:38:09;;;;;;;0.10;0.10;;;;;;;12.85;79.41;101475.69;5103591;28;20361;-79
2024/03/13 07:40:37;;;;;;;0.77;0.77;;;;;;;12.85;79.56;101479.22;5107177;28;20026;-80
2024/03/13 07:43:11;;;;;;;0.10;0.10;;;;;;;12.86;79.65;101480.97;5105640;28;20031;-80
2024/03/13 07:45:39;;;;;;;0.10;0.10;;;;;;;12.85;79.54;101479.22;5101420;28;20028;-80
2024/03/13 07:48:08;;;;;;;0.57;0.55;;;;;;;12.84;79.50;101479.25;5104475;28;20586;-79
2024/03/13 07:50:35;;;;;;;0.10;0.10;;;;;;;12.88;79.69;101484.44;5111366;28;20016;-79
2024/03/13 07:53:03;;;;;;;0.20;0.20;;;;;;;12.83;79.77;101488.97;5112713;28;20083;-80
2024/03/13 07:55:29;;;;;;;0.10;0.10;;;;;;;12.83;79.85;101494.31;5107734;28;20020;-80
2024/03/13 07:57:55;;;;;;;2.05;1.95;;;;;;;12.80;80.15;101497.03;5104952;28;20158;-79
2024/03/13 08:00:23;;;;;;;3.33;3.03;;;;;;;12.87;79.97;101496.03;5110082;28;20092;-79
2024/03/13 08:02:49;;;;;;;0.50;0.50;;;;;;;12.93;79.78;101498.56;5118334;28;20075;-78
2024/03/13 08:05:16;;;;;;;0.17;0.17;;;;;;;12.97;79.29;101496.69;5105794;28;20096;-80
2024/03/13 08:07:45;;;;;;;1.02;0.57;;;;;;;12.94;79.60;101500.28;5107753;28;20128;-77
2024/03/13 08:10:17;;;;;;;0.40;0.40;;;;;;;13.05;79.08;101496.56;5100626;28;20050;-78
2024/03/13 08:12:43;;;;;;;0.43;0.25;;;;;;;13.03;79.54;101501.03;5097731;28;20036;-79
2024/03/13 08:15:11;;;;;;;0.10;0.10;;;;;;;12.95;79.29;101499.38;5096301;28;20069;-78
2024/03/13 08:17:37;;;;;;;4.13;1.35;;;;;;;13.09;79.30;101499.13;5100007;28;20063;-77
2024/03/13 08:20:05;;;;;;;0.28;0.28;;;;;;;13.00;79.42;101498.44;5100841;28;20033;-78
2024/03/13 08:22:31;;;;;;;0.10;0.10;;;;;;;13.03;79.24;101509.00;5105251;28;20031;-79
2024/03/13 08:24:58;;;;;;;1.00;1.00;;;;;;;13.04;79.24;101511.63;5101869;28;20047;-78
2024/03/13 08:27:24;;;;;;;0.10;0.10;;;;;;;13.13;79.06;101515.91;5110880;28;20039;-79
2024/03/13 08:29:50;;;;;;;0.38;0.38;;;;;;;13.16;79.09;101509.63;5104329;28;20024;-80
2024/03/13 08:32:17;;;;;;;0.10;0.10;;;;;;;13.13;79.23;101515.03;5105221;28;20028;-78
2024/03/13 08:34:43;;;;;;;0.90;0.82;;;;;;;13.19;78.82;101518.44;5094037;28;20051;-80
2024/03/13 08:37:10;;;;;;;1.95;1.85;;;;;;;13.15;78.89;101508.78;5090334;28;20168;-79
2024/03/13 08:39:36;;;;;;;0.20;0.20;;;;;;;13.16;78.82;101505.22;5094556;28;20153;-79
2024/03/13 08:42:03;;;;;;;0.10;0.10;;;;;;;13.25;79.11;101509.47;5089838;28;20039;-75
2024/03/13 08:44:29;;;;;;;0.40;0.40;;;;;;;13.24;78.86;101521.00;5094621;28;20483;-75
2024/03/13 08:46:57;;;;;;;0.10;0.10;;;;;;;13.25;78.87;101520.97;5097192;28;20384;-76
2024/03/13 08:49:24;;;;;;;0.10;0.10;;;;;;;13.24;78.72;101527.19;5091853;28;20020;-75
2024/03/13 08:51:51;;;;;;;0.10;0.10;;;;;;;13.37;78.57;101530.53;5090085;28;20020;-77
2024/03/13 08:54:17;;;;;;;0.10;0.10;;;;;;;13.36;78.54;101534.06;5091805;28;20131;-77
2024/03/13 08:56:45;;;;;;;0.38;0.38;;;;;;;13.34;78.32;101540.34;5087841;28;20020;-77
2024/03/13 08:59:12;;;;;;;0.10;0.10;;;;;;;13.24;78.40;101535.19;5092988;28;20483;-76
2024/03/13 09:01:42;;;;;;;1.13;0.88;;;;;;;13.34;78.77;101541.19;5094920;28;20051;-77
2024/03/13 09:04:09;;;;;;;0.95;0.95;;;;;;;13.34;78.34;101543.00;5089810;28;20487;-77
2024/03/13 09:06:36;;;;;;;0.10;0.10;;;;;;;13.31;78.66;101543.03;5095503;28;20066;-76
2024/03/13 09:09:04;;;;;;;0.10;0.10;;;;;;;13.33;78.27;101541.25;5096908;28;20040;-76
2024/03/13 09:11:30;;;;;;;0.82;0.82;;;;;;;13.33;78.27;101542.09;5101876;28;20063;-77
2024/03/13 09:14:01;;;;;;;1.45;0.65;;;;;;;13.33;78.50;101544.75;5095595;28;21029;-77
2024/03/13 09:16:28;;;;;;;0.30;0.30;;;;;;;13.27;78.06;101548.44;5099460;28;20024;-76
2024/03/13 09:18:55;;;;;;;0.30;0.30;;;;;;;13.27;78.45;101551.09;5097280;28;20107;-77
2024/03/13 09:21:21;;;;;;;0.73;0.73;;;;;;;13.34;77.76;101548.31;5100225;28;20502;-78
2024/03/13 09:23:49;;;;;;;0.10;0.10;;;;;;;13.39;78.36;101557.13;5094336;28;20648;-78
2024/03/13 09:26:16;;;;;;;0.10;0.10;;;;;;;13.39;78.02;101551.78;5096032;28;20088;-78
2024/03/13 09:28:42;;;;;;;1.15;0.40;;;;;;;13.39;78.29;101550.00;5095729;28;20104;-76
2024/03/13 09:31:09;;;;;;;0.10;0.10;;;;;;;13.44;77.88;101560.56;5105722;28;20039;-77
2024/03/13 09:33:35;;;;;;;0.10;0.10;;;;;;;13.56;77.92;101557.63;5096117;28;20087;-78
2024/03/13 09:36:01;;;;;;;0.10;0.10;;;;;;;13.50;77.92;101563.09;5094004;28;20036;-77
2024/03/13 09:38:27;;;;;;;0.20;0.20;;;;;;;13.58;77.79;101555.84;5095892;28;20196;-76
2024/03/13 09:40:55;;;;;;;1.10;0.77;;;;;;;13.69;77.50;101552.06;5094562;28;20078;-75
2024/03/13 09:43:26;;;;;;;1.85;1.42;;;;;;;13.61;77.87;101559.31;5090788;28;20027;-77
2024/03/13 09:45:53;;;;;;;0.10;0.10;;;;;;;13.63;77.92;101560.19;5091881;28;20531;-77
2024/03/13 09:48:20;;;;;;;0.10;0.10;;;;;;;13.56;77.19;101554.97;5092764;28;20839;-78
2024/03/13 09:50:47;;;;;;;0.10;0.10;;;;;;;13.62;77.07;101559.31;5094070;28;20115;-76
2024/03/13 09:53:14;;;;;;;0.10;0.10;;;;;;;13.67;77.43;101559.19;5091178;28;20518;-78
2024/03/13 09:55:41;;;;;;;0.13;0.13;;;;;;;13.61;77.01;101561.97;5095411;28;20114;-78
2024/03/13 09:58:11;;;;;;;0.10;0.10;;;;;;;13.64;76.52;101567.25;5092239;28;20055;-77
2024/03/13 10:00:38;;;;;;;0.10;0.10;;;;;;;13.67;76.61;101559.19;5087436;28;20038;-77
2024/03/13 10:03:15;;;;;;;0.10;0.10;;;;;;;13.67;75.99;101551.19;5093000;28;20077;-76
2024/03/13 10:05:42;;;;;;;0.40;0.40;;;;;;;13.67;76.25;101553.88;5092808;28;20016;-77
2024/03/13 10:08:10;;;;;;;0.10;0.10;;;;;;;13.69;76.07;101557.38;5091004;28;20032;-77
2024/03/13 10:10:38;;;;;;;17.63;1.48;;;;;;;13.54;75.91;101563.91;5094498;28;20039;-76
2024/03/13 10:13:08;;;;;;;0.10;0.10;;;;;;;13.62;76.27;101555.75;5087959;28;20400;-77
2024/03/13 10:15:36;;;;;;;2.05;1.50;;;;;;;13.65;76.17;101561.03;5095218;28;20047;-77
2024/03/13 10:18:17;;;;;;;0.10;0.10;;;;;;;13.71;76.32;101561.75;5091844;28;20021;-75
2024/03/13 10:20:57;;;;;;;0.35;0.35;;;;;;;13.74;75.86;101571.47;5089781;28;20016;-78
2024/03/13 10:23:27;;;;;;;0.30;0.30;;;;;;;13.67;75.82;101575.16;5086709;28;20671;-76
2024/03/13 10:25:56;;;;;;;0.10;0.10;;;;;;;13.55;75.11;101563.88;5090519;28;20036;-76
2024/03/13 10:28:24;;;;;;;0.10;0.10;;;;;;;13.68;75.97;101560.94;5088262;28;20477;-76
2024/03/13 10:30:53;;;;;;;1.25;1.25;;;;;;;13.54;74.92;101575.41;5087602;28;20020;-76
2024/03/13 10:33:19;;;;;;;0.10;0.10;;;;;;;13.71;75.42;101566.22;5085222;28;20731;-76
2024/03/13 10:35:45;;;;;;;0.10;0.10;;;;;;;13.74;74.78;101566.16;5092625;28;20032;-74
2024/03/13 10:38:12;;;;;;;0.10;0.10;;;;;;;13.78;74.78;101565.16;5089012;28;20124;-77
2024/03/13 10:40:41;;;;;;;0.20;0.20;;;;;;;13.75;74.52;101562.56;5090764;28;20043;-75
2024/03/13 10:43:11;;;;;;;0.85;0.85;;;;;;;13.69;73.74;101560.03;5089768;28;20403;-76
2024/03/13 10:45:38;;;;;;;0.10;0.10;;;;;;;13.66;72.93;101568.13;5089704;28;20031;-77
2024/03/13 10:48:11;;;;;;;0.10;0.10;;;;;;;13.68;73.33;101576.94;5089066;28;20427;-77
2024/03/13 10:50:37;;;;;;;0.10;0.10;;;;;;;13.58;72.64;101571.81;5088449;28;20028;-77
2024/03/13 10:53:06;;;;;;;0.25;0.25;;;;;;;13.65;72.62;101577.00;5089302;28;20470;-77
2024/03/13 10:55:32;;;;;;;0.40;0.40;;;;;;;13.72;72.90;101573.28;5088324;28;20028;-77
2024/03/13 10:57:59;;;;;;;0.20;0.20;;;;;;;13.80;72.77;101568.69;5091038;28;20035;-77
2024/03/13 11:00:29;;;;;;;0.10;0.10;;;;;;;13.82;72.42;101566.88;5091808;28;20028;-75
2024/03/13 11:02:56;;;;;;;0.10;0.10;;;;;;;13.82;72.06;101564.19;5090008;28;20028;-78
2024/03/13 11:05:24;;;;;;;0.10;0.10;;;;;;;13.90;71.89;101572.00;5090837;28;20020;-75
2024/03/13 11:07:52;;;;;;;0.10;0.10;;;;;;;13.88;71.91;101568.50;5086016;28;20027;-76
2024/03/13 11:10:21;;;;;;;0.10;0.10;;;;;;;13.82;71.47;101574.84;5084068;28;20028;-77
2024/03/13 11:12:49;;;;;;;0.10;0.10;;;;;;;13.88;71.74;101569.41;5090662;28;20125;-77
2024/03/13 11:15:23;;;;;;;0.10;0.10;;;;;;;13.84;71.92;101573.00;5095817;28;20028;-76
2024/03/13 11:17:56;;;;;;;1.20;1.00;;;;;;;13.71;71.70;101584.88;5083367;28;20062;-76
2024/03/13 11:20:26;;;;;;;0.17;0.17;;;;;;;13.71;71.95;101587.53;5092425;28;20040;-74
2024/03/13 11:23:03;;;;;;;0.10;0.10;;;;;;;13.73;71.82;101575.94;5092168;28;20075;-76
2024/03/13 11:25:31;;;;;;;0.20;0.20;;;;;;;13.77;71.94;101582.06;5089494;28;20024;-75
2024/03/13 11:28:02;;;;;;;0.10;0.10;;;;;;;13.83;72.19;101573.06;5102200;28;20072;-75
2024/03/13 11:30:29;;;;;;;0.15;0.15;;;;;;;13.78;71.98;101578.47;5106207;28;20016;-77
2024/03/13 11:32:56;;;;;;;0.10;0.10;;;;;;;13.86;72.00;101576.53;5098542;28;20490;-76
2024/03/13 11:35:23;;;;;;;0.20;0.20;;;;;;;13.77;71.91;101586.50;5102495;28;20042;-74
2024/03/13 11:37:51;;;;;;;0.10;0.10;;;;;;;13.86;71.78;101576.53;5100013;28;20032;-77
2024/03/13 11:40:19;;;;;;;0.10;0.10;;;;;;;13.86;71.47;101575.66;5097686;28;20459;-77
2024/03/13 11:42:46;;;;;;;0.20;0.20;;;;;;;13.84;71.33;101578.34;5102748;28;20032;-78
2024/03/13 11:45:16;;;;;;;0.10;0.10;;;;;;;13.89;71.43;101581.81;5098585;28;20487;-76